LGRP/RHO METAR and TAF weather

Enter ICAO airport designator
Station Type Date Time Source
LGRP METAR 2023/01/30 11:50 UTC NOAA

LGRP 301150Z 27013KT 9999 FEW018 14/03 Q1010 NOSIG


Station Type Date Time Source
LGRP Decoded METAR 2023/01/30 11:50 UTC NOAA

Rhodes Airport , Greece (LGRP) 36-24N 028-05E 11M
Jan 30, 2023 - 06:50 AM EST / 2023.01.30 1150 UTC
Wind: from the W (270 degrees) at 15 MPH (13 KT):0
Visibility: greater than 7 mile(s):0
Sky conditions: mostly clear
Temperature: 57 F (14 C)
Dew Point: 37 F (3 C)
Relative Humidity: 47%
Pressure (altimeter): 29.83 in. Hg (1010 hPa)
ob: LGRP 301150Z 27013KT 9999 FEW018 14/03 Q1010 NOSIG
cycle: 12

Station Type Date Time Source
LGRP TAF 2023/01/30 12:12 UTC NOAA

TAF LGRP 301100Z 3012/3112 30015KT 9999 FEW018
TEMPO 3016/3024 30015G25KT
BECMG 3100/3102 SCT018 SCT050

Example: see airport list